Time,TemperatureF,DewpointF,PressureIn,WindDirection,WindDirectionDegrees,WindSpeedMPH,WindSpeedGustMPH,Humidity,HourlyPrecipIn,Conditions,Clouds,dailyrainin,SoftwareType,DateUTC
2013-08-17 01:21:00,59.0,-99.9,29.96,SE,141,4.0,9.0,-999,-99.99,,,-99.99,,2013-08-17 08:21:00,
2013-08-17 02:43:00,59.0,-99.9,29.94,SE,141,7.0,8.0,-999,-99.99,,,-99.99,,2013-08-17 09:43:00,
2013-08-17 02:53:00,59.0,-99.9,29.94,SE,141,7.0,8.0,-999,-99.99,,,-99.99,,2013-08-17 09:53:00,
2013-08-17 03:23:00,59.0,-99.9,29.93,SSE,156,2.0,3.0,-999,-99.99,,,-99.99,,2013-08-17 10:23:00,
2013-08-17 04:12:00,59.0,-99.9,29.93,SSE,150,4.0,5.0,-999,-99.99,,,-99.99,,2013-08-17 11:12:00,
2013-08-17 04:22:00,59.0,-99.9,29.93,SSE,158,2.0,5.0,-999,-99.99,,,-99.99,,2013-08-17 11:22:00,
2013-08-17 06:11:00,59.0,-99.9,29.93,WSW,249,4.0,6.0,-999,-99.99,,,-99.99,,2013-08-17 13:11:00,
2013-08-17 07:11:00,58.0,-99.9,29.95,SSW,202,3.0,6.0,-999,-99.99,,,-99.99,,2013-08-17 14:11:00,
2013-08-17 07:22:00,58.0,-99.9,29.95,SSW,202,3.0,6.0,-999,-99.99,,,-99.99,,2013-08-17 14:22:00,
2013-08-17 07:42:00,59.0,-99.9,29.95,SSE,151,2.0,7.0,-999,-99.99,,,-99.99,,2013-08-17 14:42:00,
2013-08-17 07:52:00,59.0,-99.9,29.95,SSE,151,2.0,7.0,-999,-99.99,,,-99.99,,2013-08-17 14:52:00,
2013-08-17 08:01:00,59.0,-99.9,29.95,SSE,151,2.0,7.0,-999,-99.99,,,-99.99,,2013-08-17 15:01:00,
2013-08-17 08:44:00,60.0,-99.9,29.96,WSW,239,3.0,6.0,-999,-99.99,,,-99.99,,2013-08-17 15:44:00,
2013-08-17 08:54:00,61.0,-99.9,29.96,WNW,283,3.0,4.0,-999,-99.99,,,-99.99,,2013-08-17 15:54:00,
2013-08-17 10:12:00,61.0,-99.9,29.97,SE,146,8.0,10.0,-999,-99.99,,,-99.99,,2013-08-17 17:12:00,
2013-08-17 12:21:00,64.0,-99.9,29.97,NW,309,2.0,10.0,-999,-99.99,,,-99.99,,2013-08-17 19:21:00,
2013-08-17 12:42:00,65.0,-99.9,29.96,WNW,286,1.0,4.0,-999,-99.99,,,-99.99,,2013-08-17 19:42:00,
2013-08-17 12:52:00,65.0,-99.9,29.96,WNW,286,1.0,4.0,-999,-99.99,,,-99.99,,2013-08-17 19:52:00,
2013-08-17 13:02:00,65.0,-99.9,29.96,WNW,286,1.0,4.0,-999,-99.99,,,-99.99,,2013-08-17 20:02:00,
2013-08-17 13:21:00,63.0,-99.9,29.94,West,264,8.0,12.0,-999,-99.99,,,-99.99,,2013-08-17 20:21:00,
2013-08-17 14:42:00,67.0,-99.9,29.93,SW,225,5.0,9.0,-999,-99.99,,,-99.99,,2013-08-17 21:42:00,
2013-08-17 17:12:00,69.0,-99.9,29.88,SW,214,3.0,13.0,-999,-99.99,,,-99.99,,2013-08-18 00:12:00,
2013-08-17 17:42:00,67.0,-99.9,29.86,SSW,210,6.0,19.0,-999,-99.99,,,-99.99,,2013-08-18 00:42:00,
2013-08-17 20:11:00,62.0,-99.9,29.86,SW,227,4.0,10.0,-999,-99.99,,,-99.99,,2013-08-18 03:11:00,
2013-08-17 21:03:00,-999.0,-99.9,29.87,NE,49,3.0,6.0,-999,-99.99,,,-99.99,,2013-08-18 04:03:00,
2013-08-17 21:23:00,60.0,-99.9,29.87,WNW,294,2.0,7.0,-999,-99.99,,,-99.99,,2013-08-18 04:23:00,
2013-08-17 21:42:00,60.0,-99.9,29.87,SW,226,2.0,9.0,-999,-99.99,,,-99.99,,2013-08-18 04:42:00,
2013-08-17 23:11:00,60.0,-99.9,29.87,South,172,2.0,5.0,-999,-99.99,,,-99.99,,2013-08-18 06:11:00,
2013-08-17 23:52:00,59.0,-99.9,29.86,SE,125,2.0,6.0,-999,-99.99,,,-99.99,,2013-08-18 06:52:00,